Time;durP1;ratioP1;P1;durP2;ratioP2;P2;SDS_P1;SDS_P2;PMS_P1;PMS_P2;Temp;Humidity;BMP_temperature;BMP_pressure;BME280_temperature;BME280_humidity;BME280_pressure;Samples;Min_cycle;Max_cycle;Signal;HPM_P1;HPM_P2
2023/11/22 00:00:13;;;;;;;18.08;11.65;;;;;;;6.36;85.24;92632.28;2051228;70;20226;-81
2023/11/22 00:02:40;;;;;;;17.25;11.73;;;;;;;6.58;85.00;92622.75;2044998;70;20185;-81
2023/11/22 00:05:06;;;;;;;18.80;11.48;;;;;;;6.73;84.55;92632.94;2047808;70;20142;-81
2023/11/22 00:07:32;;;;;;;19.05;10.82;;;;;;;6.61;83.59;92623.66;2042147;70;20179;-81
2023/11/22 00:09:58;;;;;;;16.42;11.23;;;;;;;6.78;83.63;92633.97;2047830;70;20155;-82
2023/11/22 00:12:24;;;;;;;15.07;10.55;;;;;;;6.82;83.26;92621.00;2048283;70;20560;-81
2023/11/22 00:14:51;;;;;;;16.67;10.63;;;;;;;6.87;82.49;92631.19;2048343;70;20151;-82
2023/11/22 00:17:17;;;;;;;16.33;10.65;;;;;;;6.92;82.92;92631.47;2048101;70;20215;-82
2023/11/22 00:19:44;;;;;;;18.23;10.63;;;;;;;6.90;83.14;92628.53;2047800;70;20141;-82
2023/11/22 00:22:15;;;;;;;16.52;9.85;;;;;;;6.94;82.57;92640.75;2047829;70;20634;-80
2023/11/22 00:24:45;;;;;;;14.43;9.80;;;;;;;7.01;81.99;92647.53;2047867;70;20222;-82
2023/11/22 00:27:14;;;;;;;16.92;11.70;;;;;;;6.75;83.05;92640.75;2047768;70;20163;-82
2023/11/22 00:29:40;;;;;;;19.50;12.30;;;;;;;6.35;85.87;92634.34;2044736;70;20194;-82
2023/11/22 00:32:07;;;;;;;20.23;11.23;;;;;;;6.66;84.57;92633.81;2044909;70;20143;-83
2023/11/22 00:34:34;;;;;;;16.05;10.30;;;;;;;6.81;83.26;92627.19;2047895;70;20526;-82
2023/11/22 00:37:01;;;;;;;14.75;10.00;;;;;;;6.91;82.81;92641.19;2047820;70;20670;-82
2023/11/22 00:39:27;;;;;;;15.07;9.43;;;;;;;6.97;82.80;92638.84;2048135;70;20234;-83
2023/11/22 00:41:55;;;;;;;15.68;10.25;;;;;;;6.90;82.60;92648.13;2041992;70;20185;-82
2023/11/22 00:44:21;;;;;;;17.25;11.80;;;;;;;6.73;83.44;92649.72;2044638;70;20158;-82
2023/11/22 00:46:48;;;;;;;16.33;11.20;;;;;;;6.77;83.52;92652.81;2047775;70;20266;-81
2023/11/22 00:49:15;;;;;;;14.82;9.70;;;;;;;6.68;83.55;92653.53;2047756;70;20602;-82
2023/11/22 00:51:41;;;;;;;14.48;9.85;;;;;;;6.78;82.93;92645.91;2047717;70;20610;-82
2023/11/22 00:54:07;;;;;;;12.45;7.63;;;;;;;6.49;84.32;92654.25;2044535;70;20698;-82
2023/11/22 00:56:33;;;;;;;10.48;7.32;;;;;;;6.72;83.56;92656.66;2044391;70;20649;-82
2023/11/22 00:58:59;;;;;;;10.18;7.45;;;;;;;6.81;83.07;92658.72;2044493;70;20166;-82
2023/11/22 01:01:26;;;;;;;12.43;7.88;;;;;;;6.81;83.30;92652.38;2048655;70;20154;-83
2023/11/22 01:03:52;;;;;;;10.05;7.05;;;;;;;6.92;82.88;92656.66;2050846;70;20165;-79
2023/11/22 01:06:18;;;;;;;9.07;6.40;;;;;;;6.74;82.71;92665.19;2050681;70;20155;-81
2023/11/22 01:08:44;;;;;;;11.93;7.85;;;;;;;5.97;86.73;92665.00;2047811;70;20143;-82
2023/11/22 01:11:10;;;;;;;13.40;7.35;;;;;;;5.97;87.15;92654.53;2050899;70;20764;-80
2023/11/22 01:13:40;;;;;;;12.32;7.90;;;;;;;5.67;88.89;92660.56;2050908;70;20182;-81
2023/11/22 01:16:10;;;;;;;11.30;7.10;;;;;;;6.04;87.79;92664.13;2050826;70;20158;-82
2023/11/22 01:18:36;;;;;;;9.32;6.97;;;;;;;6.42;85.70;92660.00;2044837;70;20706;-80
2023/11/22 01:21:06;;;;;;;9.95;7.07;;;;;;;6.59;84.62;92663.41;2050943;70;20237;-82
2023/11/22 01:23:32;;;;;;;8.50;5.60;;;;;;;6.53;84.34;92665.00;2050681;70;20233;-81
2023/11/22 01:26:02;;;;;;;6.60;4.60;;;;;;;6.23;84.35;92669.81;2047827;70;20174;-82
2023/11/22 01:28:29;;;;;;;7.63;4.97;;;;;;;6.42;83.86;92654.41;2044689;70;20150;-83
2023/11/22 01:30:55;;;;;;;5.68;4.45;;;;;;;6.64;83.04;92664.44;2047641;70;20162;-82
2023/11/22 01:33:24;;;;;;;5.18;4.03;;;;;;;6.54;82.91;92644.84;2044123;70;20181;-83
2023/11/22 01:35:50;;;;;;;6.03;3.92;;;;;;;6.17;83.47;92658.13;2044750;70;20230;-83
2023/11/22 01:38:16;;;;;;;4.88;3.70;;;;;;;6.14;84.25;92664.91;2044266;70;20158;-81
2023/11/22 01:40:46;;;;;;;5.72;4.07;;;;;;;5.93;85.19;92662.63;2043778;70;20157;-82
2023/11/22 01:43:17;;;;;;;5.35;3.92;;;;;;;6.00;85.69;92664.56;2047740;70;20146;-82
2023/11/22 01:45:44;;;;;;;5.40;4.05;;;;;;;6.22;84.57;92662.72;2044230;70;20186;-82
2023/11/22 01:48:11;;;;;;;6.80;3.67;;;;;;;6.44;83.81;92662.94;2044252;70;20178;-82
2023/11/22 01:50:42;;;;;;;6.05;3.97;;;;;;;6.16;83.81;92669.91;2047402;70;20134;-82
2023/11/22 01:53:10;;;;;;;5.90;4.10;;;;;;;6.08;85.77;92672.81;2047997;70;20170;-82
2023/11/22 01:55:38;;;;;;;5.47;3.85;;;;;;;5.87;86.56;92676.09;2043836;70;20322;-81
2023/11/22 01:58:04;;;;;;;5.30;3.83;;;;;;;6.25;85.33;92674.81;2041606;70;20162;-80
2023/11/22 02:00:35;;;;;;;4.32;3.45;;;;;;;6.45;83.88;92681.19;2044082;70;20142;-81
2023/11/22 02:03:02;;;;;;;5.37;3.77;;;;;;;6.46;83.84;92679.84;2047455;70;20262;-80
2023/11/22 02:05:28;;;;;;;3.42;3.08;;;;;;;6.51;83.27;92668.41;2041453;70;20166;-81
2023/11/22 02:07:55;;;;;;;4.15;3.13;;;;;;;6.53;82.97;92676.19;2044495;70;20153;-81
2023/11/22 02:10:20;;;;;;;3.58;3.00;;;;;;;6.51;83.21;92681.66;2047613;70;20348;-81
2023/11/22 02:12:46;;;;;;;4.63;2.63;;;;;;;6.66;82.51;92683.44;2044374;70;20151;-80
2023/11/22 02:15:12;;;;;;;2.90;2.47;;;;;;;6.62;82.55;92681.06;2044204;70;20157;-81
2023/11/22 02:17:38;;;;;;;4.53;2.70;;;;;;;6.67;82.29;92670.94;2044192;70;20182;-82
2023/11/22 02:20:08;;;;;;;3.67;2.50;;;;;;;6.48;82.71;92680.75;2047302;70;20131;-83
2023/11/22 02:22:43;;;;;;;3.88;2.40;;;;;;;6.28;83.36;92673.63;2044224;70;20581;-83
2023/11/22 02:25:09;;;;;;;4.00;2.22;;;;;;;6.26;83.61;92676.28;2044643;70;20671;-82
2023/11/22 02:27:37;;;;;;;2.55;1.75;;;;;;;5.82;85.06;92675.06;2044946;70;20574;-82
2023/11/22 02:30:05;;;;;;;2.40;1.98;;;;;;;6.13;84.62;92676.66;2044743;70;20134;-81
2023/11/22 02:32:33;;;;;;;2.78;2.10;;;;;;;6.31;83.66;92678.03;2044860;70;20237;-81
2023/11/22 02:35:00;;;;;;;2.05;1.83;;;;;;;6.46;82.52;92679.84;2048153;70;20138;-80
2023/11/22 02:37:27;;;;;;;2.70;1.90;;;;;;;6.42;82.77;92676.78;2048126;70;20546;-80
2023/11/22 02:40:06;;;;;;;2.65;1.83;;;;;;;6.53;81.97;92676.94;2048166;70;20139;-81
2023/11/22 02:42:33;;;;;;;2.28;1.60;;;;;;;6.51;82.12;92690.03;2044850;70;20672;-80
2023/11/22 02:44:58;;;;;;;2.38;1.88;;;;;;;6.52;82.04;92691.50;2044725;70;20518;-80
2023/11/22 02:47:24;;;;;;;2.42;2.00;;;;;;;6.47;82.08;92701.66;2047832;70;20123;-81
2023/11/22 02:49:49;;;;;;;2.17;1.73;;;;;;;6.40;82.79;92696.91;2048130;70;20574;-81
2023/11/22 02:52:16;;;;;;;3.00;1.42;;;;;;;6.45;82.15;92692.38;2048360;70;20607;-82
2023/11/22 02:54:45;;;;;;;2.83;1.70;;;;;;;6.45;81.68;92686.78;2047929;70;20217;-82
2023/11/22 02:57:11;;;;;;;2.40;1.65;;;;;;;6.41;81.81;92690.00;2048126;70;20158;-82
2023/11/22 02:59:41;;;;;;;2.30;1.70;;;;;;;6.41;81.83;92678.81;2047869;70;20154;-82
2023/11/22 03:02:07;;;;;;;1.85;1.65;;;;;;;6.40;81.64;92680.13;2044350;70;20151;-82
2023/11/22 03:04:33;;;;;;;1.98;1.70;;;;;;;6.40;82.29;92690.59;2044593;70;20154;-82
2023/11/22 03:07:00;;;;;;;2.97;1.80;;;;;;;6.49;81.76;92692.66;2044671;70;20611;-82
2023/11/22 03:09:26;;;;;;;2.90;1.90;;;;;;;6.38;82.02;92682.06;2044698;70;20147;-83
2023/11/22 03:11:52;;;;;;;2.33;2.10;;;;;;;6.29;83.02;92694.69;2044581;70;20155;-83
2023/11/22 03:14:19;;;;;;;2.50;2.05;;;;;;;6.40;82.27;92694.13;2044650;70;20147;-82
2023/11/22 03:16:45;;;;;;;2.17;1.90;;;;;;;6.43;81.18;92700.59;2048064;70;20138;-82
2023/11/22 03:19:13;;;;;;;2.83;1.48;;;;;;;6.31;81.93;92703.22;2044607;70;20238;-79
2023/11/22 03:21:40;;;;;;;2.75;1.48;;;;;;;6.23;81.50;92700.56;2048017;70;20527;-82
2023/11/22 03:24:08;;;;;;;1.23;1.08;;;;;;;6.30;82.20;92704.53;2048018;70;20594;-80
2023/11/22 03:26:34;;;;;;;2.00;1.17;;;;;;;6.43;81.30;92712.53;2047909;70;20204;-79
2023/11/22 03:29:00;;;;;;;2.97;1.30;;;;;;;6.41;81.38;92706.03;2047925;70;20238;-80
2023/11/22 03:31:27;;;;;;;1.63;1.30;;;;;;;6.31;81.84;92706.75;2048094;70;20179;-81
2023/11/22 03:33:56;;;;;;;2.35;1.40;;;;;;;6.47;81.61;92712.84;2048036;70;20158;-82
2023/11/22 03:36:22;;;;;;;1.58;1.23;;;;;;;6.41;81.52;92711.63;2047799;70;20602;-82
2023/11/22 03:38:49;;;;;;;2.05;1.40;;;;;;;6.46;81.49;92713.41;2048042;70;20153;-82
2023/11/22 03:41:15;;;;;;;1.63;1.40;;;;;;;6.48;81.43;92713.56;2047800;70;20158;-82
2023/11/22 03:43:41;;;;;;;1.63;1.40;;;;;;;6.52;80.87;92716.69;2047676;70;20553;-83
2023/11/22 03:46:06;;;;;;;1.42;1.33;;;;;;;6.51;80.62;92713.16;2044628;70;20693;-81
2023/11/22 03:48:32;;;;;;;1.60;1.40;;;;;;;6.19;82.22;92716.28;2047805;70;20135;-82
2023/11/22 03:51:00;;;;;;;2.30;1.70;;;;;;;6.07;82.89;92719.59;2047824;70;20170;-82
2023/11/22 03:53:26;;;;;;;1.63;1.48;;;;;;;6.31;82.27;92726.31;2050825;70;20166;-82
2023/11/22 03:55:52;;;;;;;1.98;1.50;;;;;;;6.26;82.10;92721.72;2051085;70;20595;-82
2023/11/22 03:58:18;;;;;;;1.85;1.35;;;;;;;6.26;82.42;92730.13;2051261;70;20137;-82
2023/11/22 04:00:44;;;;;;;2.58;1.85;;;;;;;6.26;82.67;92732.19;2047674;70;20181;-80
2023/11/22 04:03:10;;;;;;;3.25;1.65;;;;;;;6.34;81.89;92736.34;2047657;70;20658;-82
2023/11/22 04:05:36;;;;;;;2.50;2.00;;;;;;;5.78;84.28;92744.56;2051056;70;20681;-82
2023/11/22 04:08:01;;;;;;;2.90;2.40;;;;;;;5.46;86.38;92747.59;2051631;70;20134;-81
2023/11/22 04:10:27;;;;;;;3.08;2.42;;;;;;;5.74;85.89;92755.44;2051492;70;20134;-82
2023/11/22 04:12:53;;;;;;;3.70;2.50;;;;;;;5.99;84.71;92746.91;2051518;70;20273;-82
2023/11/22 04:15:19;;;;;;;3.38;2.50;;;;;;;6.02;83.99;92742.22;2051486;70;20249;-82
2023/11/22 04:17:45;;;;;;;4.38;2.90;;;;;;;6.21;83.60;92744.38;2051598;70;20131;-83
2023/11/22 04:20:14;;;;;;;5.13;2.95;;;;;;;6.31;82.99;92750.75;2048152;70;20170;-82
2023/11/22 04:22:47;;;;;;;3.42;2.72;;;;;;;6.26;82.89;92751.75;2051493;70;20131;-79
2023/11/22 04:25:15;;;;;;;;;;;;;;;6.22;83.36;92754.97;2051634;70;20186;-82
2023/11/22 04:27:41;;;;;;;3.47;2.55;;;;;;;6.31;82.82;92745.88;2051511;70;20070;-82
2023/11/22 04:30:13;;;;;;;4.55;3.80;;;;;;;6.26;82.84;92758.06;2051497;70;20146;-80
2023/11/22 04:32:38;;;;;;;4.45;3.20;;;;;;;6.38;82.66;92751.97;2051592;70;20208;-80
2023/11/22 04:35:05;;;;;;;3.78;2.80;;;;;;;6.23;82.67;92759.25;2051522;70;20162;-81
2023/11/22 04:37:34;;;;;;;4.53;2.92;;;;;;;6.31;82.59;92753.53;2048381;70;20173;-83
2023/11/22 04:40:01;;;;;;;3.45;2.60;;;;;;;6.38;82.43;92751.97;2048205;70;20241;-82
2023/11/22 04:42:27;;;;;;;4.68;2.45;;;;;;;6.36;82.43;92763.72;2051529;70;20519;-83
2023/11/22 04:44:54;;;;;;;2.75;2.17;;;;;;;5.90;83.68;92758.75;2050944;70;20201;-82
2023/11/22 04:47:21;;;;;;;2.17;1.98;;;;;;;5.97;83.17;92757.94;2051416;70;20254;-83
2023/11/22 04:49:48;;;;;;;3.75;2.00;;;;;;;6.10;83.13;92765.97;2051284;70;20205;-82
2023/11/22 04:52:14;;;;;;;5.03;2.20;;;;;;;6.14;82.69;92768.34;2051531;70;20190;-80
2023/11/22 04:54:39;;;;;;;3.30;2.35;;;;;;;5.95;83.75;92768.94;2051566;70;20656;-82
2023/11/22 04:57:05;;;;;;;6.40;3.05;;;;;;;5.76;84.97;92769.53;2051414;70;20142;-80
2023/11/22 04:59:31;;;;;;;34.63;18.90;;;;;;;5.98;83.94;92770.59;2051382;70;20166;-82
2023/11/22 05:01:57;;;;;;;18.67;9.52;;;;;;;6.17;83.45;92775.53;2051387;70;20245;-79
2023/11/22 05:04:23;;;;;;;6.22;4.22;;;;;;;6.24;82.69;92780.31;2051287;70;20230;-81
2023/11/22 05:06:49;;;;;;;8.32;5.60;;;;;;;6.04;83.09;92792.69;2048290;70;20141;-80
2023/11/22 05:09:15;;;;;;;10.65;5.55;;;;;;;5.71;84.57;92795.69;2045295;70;20232;-79
2023/11/22 05:11:41;;;;;;;10.18;5.88;;;;;;;6.00;83.93;92800.75;2051426;70;20204;-79
2023/11/22 05:14:07;;;;;;;11.40;5.22;;;;;;;6.02;83.79;92804.44;2051349;70;20203;-80
2023/11/22 05:16:33;;;;;;;6.22;3.25;;;;;;;5.99;83.27;92807.66;2048114;70;20134;-82
2023/11/22 05:18:59;;;;;;;3.67;2.90;;;;;;;5.80;83.63;92795.00;2051198;70;20205;-82
2023/11/22 05:21:25;;;;;;;4.70;3.40;;;;;;;5.76;83.76;92802.31;2051385;70;20181;-83
2023/11/22 05:23:52;;;;;;;4.60;3.00;;;;;;;5.93;83.94;92809.97;2051346;70;20583;-83
2023/11/22 05:26:17;;;;;;;3.17;2.53;;;;;;;5.85;83.47;92810.03;2051470;70;20149;-82
2023/11/22 05:28:43;;;;;;;2.45;2.20;;;;;;;6.04;83.55;92809.44;2051403;70;20134;-82
2023/11/22 05:31:08;;;;;;;2.67;2.20;;;;;;;6.06;82.83;92809.63;2051321;70;20150;-83
2023/11/22 05:33:34;;;;;;;2.78;2.50;;;;;;;5.88;84.04;92810.94;2051218;70;20130;-80
2023/11/22 05:36:00;;;;;;;2.40;2.20;;;;;;;5.90;83.80;92809.03;2051260;70;20142;-82
2023/11/22 05:38:26;;;;;;;2.75;2.40;;;;;;;5.90;83.18;92809.03;2051245;70;20158;-81
2023/11/22 05:40:52;;;;;;;2.97;2.10;;;;;;;5.81;83.44;92816.03;2051437;70;20159;-80
2023/11/22 05:43:19;;;;;;;3.97;2.45;;;;;;;5.66;83.74;92810.63;2051702;70;20232;-80
2023/11/22 05:45:49;;;;;;;2.67;2.20;;;;;;;5.77;83.96;92834.53;2051442;70;20143;-79
2023/11/22 05:48:15;;;;;;;2.97;2.40;;;;;;;5.82;83.18;92831.50;2051365;70;20609;-81
2023/11/22 05:50:40;;;;;;;3.90;2.80;;;;;;;5.73;83.45;92832.16;2051195;70;20158;-81
2023/11/22 05:53:06;;;;;;;4.40;2.80;;;;;;;5.88;83.63;92833.31;2051320;70;20154;-82
2023/11/22 05:55:32;;;;;;;3.08;2.47;;;;;;;6.05;82.50;92822.13;2051453;70;20518;-81
2023/11/22 05:57:57;;;;;;;4.30;2.90;;;;;;;5.71;82.84;92829.19;2051291;70;20162;-83
2023/11/22 06:00:23;;;;;;;5.65;3.20;;;;;;;5.70;83.72;92833.31;2045575;70;20634;-83
2023/11/22 06:02:48;;;;;;;14.30;7.80;;;;;;;5.60;85.01;92844.41;2051812;70;20181;-83
2023/11/22 06:05:14;;;;;;;11.85;7.00;;;;;;;5.79;84.34;92848.66;2051567;70;20145;-81
2023/11/22 06:07:40;;;;;;;8.57;6.05;;;;;;;5.76;83.89;92842.16;2051808;70;20245;-81
2023/11/22 06:10:05;;;;;;;5.20;3.60;;;;;;;5.66;84.40;92840.63;2051724;70;20150;-81
2023/11/22 06:12:31;;;;;;;8.07;4.45;;;;;;;5.78;83.70;92842.34;2051854;70;20618;-82
2023/11/22 06:14:57;;;;;;;6.07;4.10;;;;;;;5.98;82.79;92848.09;2050451;70;20146;-80
2023/11/22 06:17:22;;;;;;;6.57;4.25;;;;;;;5.80;83.27;92856.47;2051985;70;20243;-80
2023/11/22 06:19:48;;;;;;;5.35;3.58;;;;;;;5.98;82.71;92851.63;2048479;70;20154;-82
2023/11/22 06:22:14;;;;;;;5.53;4.00;;;;;;;6.04;82.60;92851.38;2051717;70;20170;-82
2023/11/22 06:24:41;;;;;;;6.88;4.28;;;;;;;6.08;82.63;92854.50;2051660;70;20599;-82
2023/11/22 06:27:06;;;;;;;6.72;4.15;;;;;;;6.09;82.67;92859.53;2051690;70;20206;-82
2023/11/22 06:29:32;;;;;;;6.72;4.13;;;;;;;6.17;82.38;92865.00;2051730;70;20166;-82
2023/11/22 06:31:58;;;;;;;5.00;3.60;;;;;;;6.11;82.55;92864.53;2051737;70;20178;-82
2023/11/22 06:34:23;;;;;;;6.07;4.05;;;;;;;5.93;82.68;92863.81;2051653;70;20146;-81
2023/11/22 06:36:49;;;;;;;5.68;3.97;;;;;;;5.95;83.36;92868.81;2051616;70;20135;-82
2023/11/22 06:39:14;;;;;;;5.40;3.70;;;;;;;6.09;82.54;92881.13;2048477;70;20237;-81
2023/11/22 06:41:41;;;;;;;4.40;3.47;;;;;;;6.10;82.84;92877.75;2048385;70;20151;-82
2023/11/22 06:44:07;;;;;;;4.43;3.55;;;;;;;5.90;82.41;92881.69;2048380;70;20234;-81
2023/11/22 06:46:32;;;;;;;4.93;3.08;;;;;;;6.00;82.88;92888.13;2051754;70;20598;-82
2023/11/22 06:48:58;;;;;;;4.82;3.10;;;;;;;6.05;82.01;92887.16;2051602;70;20152;-80
2023/11/22 06:51:24;;;;;;;4.03;3.15;;;;;;;6.09;82.08;92883.91;2051731;70;20162;-81
2023/11/22 06:53:52;;;;;;;4.10;2.80;;;;;;;6.11;81.55;92896.00;2051582;70;20146;-83
2023/11/22 06:56:18;;;;;;;5.38;3.80;;;;;;;5.93;81.87;92899.41;2051635;70;20154;-81
2023/11/22 06:58:43;;;;;;;5.70;4.15;;;;;;;5.59;83.76;92887.63;2051753;70;20216;-81
2023/11/22 07:01:10;;;;;;;5.80;4.03;;;;;;;5.72;84.18;92891.38;2051530;70;20241;-81
2023/11/22 07:03:37;;;;;;;5.47;3.85;;;;;;;5.91;83.85;92901.97;2051454;70;20174;-82
2023/11/22 07:06:04;;;;;;;7.80;3.10;;;;;;;6.10;83.09;92896.59;2051640;70;20165;-81
2023/11/22 07:08:30;;;;;;;4.93;3.63;;;;;;;6.16;82.75;92899.88;2051662;70;20134;-81
2023/11/22 07:10:59;;;;;;;5.03;2.78;;;;;;;6.29;82.20;92907.16;2051444;70;20272;-81
2023/11/22 07:13:25;;;;;;;3.90;2.65;;;;;;;6.29;81.80;92898.78;2051630;70;20149;-82
2023/11/22 07:15:51;;;;;;;2.97;2.50;;;;;;;6.32;81.88;92903.97;2051515;70;20162;-81
2023/11/22 07:18:17;;;;;;;5.00;2.90;;;;;;;6.25;81.97;92910.38;2048262;70;20165;-80
2023/11/22 07:20:42;;;;;;;6.13;3.50;;;;;;;6.34;81.71;92920.88;2051531;70;20225;-80
2023/11/22 07:23:13;;;;;;;3.72;3.13;;;;;;;6.17;82.11;92911.78;2051618;70;20170;-81
2023/11/22 07:25:39;;;;;;;4.45;3.20;;;;;;;6.29;82.21;92916.28;2048261;70;20143;-81
2023/11/22 07:28:05;;;;;;;4.15;3.35;;;;;;;6.43;81.70;92915.94;2048329;70;20154;-81
2023/11/22 07:30:33;;;;;;;5.97;4.45;;;;;;;6.34;82.43;92929.28;2051449;70;20605;-81
2023/11/22 07:33:01;;;;;;;6.53;4.25;;;;;;;6.45;82.02;92922.41;2051577;70;20153;-80
2023/11/22 07:35:28;;;;;;;7.07;4.57;;;;;;;6.61;81.81;92929.31;2048200;70;20186;-81
2023/11/22 07:37:54;;;;;;;6.97;4.97;;;;;;;6.16;83.17;92925.03;2048235;70;20138;-81
2023/11/22 07:40:22;;;;;;;5.45;4.55;;;;;;;6.43;83.11;92932.72;2051486;70;20166;-81
2023/11/22 07:42:47;;;;;;;7.60;5.13;;;;;;;6.68;82.10;92943.75;2048226;70;20138;-81
2023/11/22 07:45:13;;;;;;;8.00;4.95;;;;;;;6.78;82.05;92938.94;2051502;70;20154;-82
2023/11/22 07:47:43;;;;;;;9.50;4.65;;;;;;;6.99;81.20;92930.81;2051486;70;20130;-82
2023/11/22 07:50:11;;;;;;;6.30;4.63;;;;;;;7.08;81.47;92938.53;2051390;70;20241;-81
2023/11/22 07:52:40;;;;;;;6.15;4.55;;;;;;;7.00;81.26;92940.69;2051532;70;20146;-81
2023/11/22 07:55:07;;;;;;;6.57;4.38;;;;;;;7.08;80.33;92946.19;2051481;70;20139;-81
2023/11/22 07:57:38;;;;;;;7.13;4.85;;;;;;;7.11;80.96;92942.97;2051443;70;20137;-81
2023/11/22 08:00:07;;;;;;;8.20;5.68;;;;;;;6.21;82.65;92951.97;2051474;70;20161;-82
2023/11/22 08:02:38;;;;;;;8.35;5.30;;;;;;;6.47;83.32;92952.63;2051445;70;20143;-81
2023/11/22 08:05:08;;;;;;;7.32;5.20;;;;;;;6.76;82.42;92952.78;2051313;70;20232;-81
2023/11/22 08:07:40;;;;;;;6.30;4.93;;;;;;;6.92;81.73;92961.72;2051446;70;20158;-81
2023/11/22 08:10:18;;;;;;;8.50;5.60;;;;;;;6.92;80.69;92964.50;2051344;70;20142;-81
2023/11/22 08:12:45;;;;;;;10.23;6.05;;;;;;;7.05;80.68;92969.75;2051567;70;20170;-81
2023/11/22 08:15:14;;;;;;;13.25;8.13;;;;;;;7.04;81.21;92969.00;2051445;70;20232;-81
2023/11/22 08:17:40;;;;;;;14.50;7.40;;;;;;;7.03;80.75;92983.59;2051565;70;20574;-81
2023/11/22 08:20:11;;;;;;;15.82;8.93;;;;;;;7.00;80.46;92981.94;2051331;70;20158;-82
2023/11/22 08:22:38;;;;;;;18.30;8.85;;;;;;;7.12;80.46;92980.09;2051281;70;20143;-81
2023/11/22 08:25:05;;;;;;;15.52;8.32;;;;;;;7.06;80.81;92988.03;2051455;70;20148;-81
2023/11/22 08:27:31;;;;;;;7.82;5.50;;;;;;;6.78;80.90;92980.94;2051400;70;20170;-81
2023/11/22 08:29:58;;;;;;;9.48;5.78;;;;;;;6.97;81.48;92981.06;2051556;70;20142;-81
2023/11/22 08:32:27;;;;;;;7.30;4.97;;;;;;;6.90;81.49;92989.56;2051657;70;20166;-81
2023/11/22 08:34:53;;;;;;;9.85;5.28;;;;;;;7.23;81.10;92987.22;2051271;70;20151;-81
2023/11/22 08:37:18;;;;;;;8.45;5.47;;;;;;;6.85;82.26;92978.03;2051327;70;20135;-82
2023/11/22 08:39:44;;;;;;;11.25;5.18;;;;;;;6.94;81.15;92985.00;2051552;70;20150;-81
2023/11/22 08:42:10;;;;;;;11.52;5.28;;;;;;;6.47;82.88;92981.34;2051476;70;20155;-78
2023/11/22 08:44:36;;;;;;;8.07;5.20;;;;;;;6.73;83.21;92979.88;2051482;70;20174;-80
2023/11/22 08:47:05;;;;;;;6.72;4.63;;;;;;;6.73;82.01;92981.94;2051434;70;20162;-81
2023/11/22 08:49:31;;;;;;;7.70;4.57;;;;;;;6.55;82.67;92981.97;2051219;70;20615;-82
2023/11/22 08:51:59;;;;;;;8.70;4.47;;;;;;;6.98;81.95;92987.41;2048053;70;20150;-81
2023/11/22 08:54:28;;;;;;;7.55;4.40;;;;;;;6.76;81.15;92991.97;2051325;70;20557;-81
2023/11/22 08:56:56;;;;;;;7.22;4.32;;;;;;;6.79;81.57;93002.00;2051351;70;20139;-82
2023/11/22 08:59:22;;;;;;;9.13;5.20;;;;;;;6.53;83.51;93012.56;2051400;70;20198;-81
2023/11/22 09:01:47;;;;;;;10.68;5.97;;;;;;;6.82;84.34;93004.38;2051311;70;20185;-81
2023/11/22 09:04:13;;;;;;;9.38;5.43;;;;;;;7.49;82.18;93002.50;2051128;70;20142;-81
2023/11/22 09:06:39;;;;;;;8.68;4.70;;;;;;;7.55;80.15;93008.56;2051345;70;20165;-81
2023/11/22 09:09:05;;;;;;;6.43;4.35;;;;;;;6.96;82.08;92998.41;2048098;70;20616;-81
2023/11/22 09:11:31;;;;;;;5.13;3.80;;;;;;;7.29;80.90;93004.50;2051392;70;20218;-81
2023/11/22 09:13:57;;;;;;;3.78;3.20;;;;;;;7.26;81.44;93037.19;2051413;70;20138;-81
2023/11/22 09:16:25;;;;;;;5.65;3.28;;;;;;;6.69;80.93;93031.97;2051328;70;20145;-80
2023/11/22 09:18:51;;;;;;;4.00;3.13;;;;;;;7.21;80.55;93043.06;2051146;70;20154;-81
2023/11/22 09:21:17;;;;;;;4.25;3.20;;;;;;;7.26;78.96;93034.41;2051545;70;20221;-81
2023/11/22 09:23:43;;;;;;;2.85;2.50;;;;;;;7.28;78.13;93031.75;2051352;70;20165;-81
2023/11/22 09:26:08;;;;;;;3.83;3.30;;;;;;;6.99;79.73;93042.78;2051310;70;20138;-81
2023/11/22 09:28:34;;;;;;;5.25;4.15;;;;;;;6.56;82.12;93031.00;2051468;70;20157;-80
2023/11/22 09:31:05;;;;;;;5.45;4.18;;;;;;;7.12;80.61;93024.91;2047935;70;20154;-81
2023/11/22 09:33:32;;;;;;;7.15;4.50;;;;;;;7.19;80.64;93035.22;2051309;70;20558;-81
2023/11/22 09:36:03;;;;;;;5.03;3.90;;;;;;;6.76;81.43;93042.34;2051080;70;20151;-80
2023/11/22 09:38:29;;;;;;;4.63;3.67;;;;;;;7.27;80.23;93035.88;2051227;70;20175;-80
2023/11/22 09:40:56;;;;;;;5.57;3.45;;;;;;;7.37;79.03;93045.06;2051296;70;20244;-80
2023/11/22 09:43:24;;;;;;;5.35;3.70;;;;;;;7.39;79.73;93027.69;2051274;70;20154;-80
2023/11/22 09:45:51;;;;;;;6.28;4.28;;;;;;;6.68;82.00;93034.03;2051300;70;20158;-81
2023/11/22 09:48:22;;;;;;;5.25;3.90;;;;;;;6.62;82.74;93048.28;2051187;70;20318;-80
2023/11/22 09:50:59;;;;;;;6.93;4.15;;;;;;;6.98;82.30;93052.50;2051090;70;20152;-81
2023/11/22 09:53:36;;;;;;;5.15;3.90;;;;;;;7.03;80.02;93051.50;2048063;70;20134;-81
2023/11/22 09:56:03;;;;;;;5.97;3.95;;;;;;;7.02;79.99;93058.44;2049828;70;20195;-81
2023/11/22 09:58:32;;;;;;;7.18;4.47;;;;;;;6.37;82.16;93053.22;2051140;70;20178;-83
2023/11/22 10:00:59;;;;;;;6.03;4.47;;;;;;;6.03;84.36;93053.91;2051104;70;20150;-82
2023/11/22 10:03:30;;;;;;;6.53;4.75;;;;;;;7.00;82.78;93068.72;2051026;70;20146;-82
2023/11/22 10:05:57;;;;;;;7.57;4.60;;;;;;;6.71;81.86;93076.91;2051374;70;20190;-81
2023/11/22 10:08:23;;;;;;;5.65;4.22;;;;;;;6.66;82.07;93072.31;2051213;70;20517;-81
2023/11/22 10:10:54;;;;;;;6.35;4.93;;;;;;;6.77;83.44;93061.34;2051149;70;20150;-81
2023/11/22 10:13:22;;;;;;;6.35;5.00;;;;;;;7.36;81.81;93057.59;2051202;70;20533;-80
2023/11/22 10:15:49;;;;;;;6.82;5.30;;;;;;;7.27;80.41;93060.34;2051190;70;20146;-80
2023/11/22 10:18:14;;;;;;;7.65;4.85;;;;;;;7.21;80.27;93066.22;2051153;70;20150;-81
2023/11/22 10:20:42;;;;;;;5.60;4.18;;;;;;;7.12;81.04;93072.50;2051027;70;20571;-79
2023/11/22 10:23:09;;;;;;;6.47;4.72;;;;;;;6.75;82.53;93080.03;2051243;70;20150;-81
2023/11/22 10:25:57;;;;;;;8.30;4.75;;;;;;;6.96;81.82;93069.13;2051261;70;20189;-81
2023/11/22 10:28:27;;;;;;;7.03;5.10;;;;;;;7.54;80.96;93077.88;2047686;70;20146;-81
2023/11/22 10:30:53;;;;;;;7.13;4.85;;;;;;;7.00;81.46;93071.53;2051110;70;20142;-81
2023/11/22 10:33:22;;;;;;;6.75;4.40;;;;;;;6.94;81.99;93074.56;2051066;70;20145;-80
2023/11/22 10:35:52;;;;;;;6.30;4.28;;;;;;;7.06;80.98;93074.81;2047816;70;20138;-80
2023/11/22 10:38:20;;;;;;;5.70;4.07;;;;;;;9.09;78.28;93080.31;2051069;70;20319;-79
2023/11/22 10:40:47;;;;;;;4.50;3.40;;;;;;;9.14;73.13;93080.00;2051026;70;20162;-80
2023/11/22 10:43:16;;;;;;;5.07;3.80;;;;;;;9.25;73.77;93075.09;2047772;70;20599;-81
2023/11/22 10:45:51;;;;;;;4.57;3.10;;;;;;;9.75;73.60;93075.13;2051101;70;20161;-82
2023/11/22 10:48:17;;;;;;;5.20;3.20;;;;;;;13.41;67.82;93079.78;2051600;70;20162;-81
2023/11/22 10:50:44;;;;;;;4.28;2.70;;;;;;;13.15;62.44;93086.78;2051437;70;20150;-80
2023/11/22 10:53:13;;;;;;;3.22;2.60;;;;;;;14.40;56.81;93092.25;2051597;70;20610;-79
2023/11/22 10:55:44;;;;;;;2.92;2.63;;;;;;;13.58;59.60;93083.53;2051596;70;20154;-80
2023/11/22 10:58:11;;;;;;;3.00;2.25;;;;;;;12.22;60.46;93088.34;2051604;70;20483;-81
2023/11/22 11:00:41;;;;;;;4.05;2.35;;;;;;;15.51;56.35;93087.97;2051496;70;20590;-80
2023/11/22 11:03:31;;;;;;;3.17;2.40;;;;;;;18.29;51.48;93092.25;2051771;70;20146;-80
2023/11/22 11:06:04;;;;;;;2.33;2.13;;;;;;;16.85;51.54;93097.69;2051780;70;20164;-81
2023/11/22 11:08:31;;;;;;;2.05;1.63;;;;;;;18.83;48.93;93100.72;2048367;70;20209;-81
2023/11/22 11:10:58;;;;;;;1.60;1.38;;;;;;;17.68;47.08;93091.94;2050277;70;20218;-80
2023/11/22 11:13:24;;;;;;;3.13;1.90;;;;;;;16.41;51.89;93095.03;2051630;70;20154;-80
2023/11/22 11:15:52;;;;;;;2.35;1.70;;;;;;;15.51;52.24;93102.16;2051053;70;20301;-80
2023/11/22 11:18:18;;;;;;;5.30;2.05;;;;;;;15.52;51.70;93095.09;2048264;70;20614;-80
2023/11/22 11:20:52;;;;;;;3.75;1.90;;;;;;;16.84;50.13;93108.31;2048134;70;20151;-81
2023/11/22 11:23:24;;;;;;;3.03;1.80;;;;;;;18.60;47.23;93115.47;2051546;70;20142;-80
2023/11/22 11:25:53;;;;;;;2.30;2.10;;;;;;;18.74;46.89;93110.34;2051523;70;20149;-80
2023/11/22 11:28:20;;;;;;;3.13;2.00;;;;;;;16.45;48.42;93117.97;2048258;70;20581;-81
2023/11/22 11:30:48;;;;;;;2.30;2.10;;;;;;;14.16;52.08;93113.59;2051495;70;20138;-81
2023/11/22 11:33:17;;;;;;;2.83;2.17;;;;;;;12.60;57.67;93114.63;2051502;70;20142;-81
2023/11/22 11:35:46;;;;;;;3.50;2.22;;;;;;;11.37;60.33;93123.97;2051448;70;20215;-81
2023/11/22 11:38:21;;;;;;;6.03;4.20;;;;;;;10.21;64.25;93133.13;2051542;70;20224;-81